COYOTE (LAKE MENDOCINO) (COY)

Elevation: 720' · RUSSIAN R basin · Operator: US Army Corps of Engineers

Provisional data, subject to change.
Query executed Saturday at 10:45:58   clock

Select a sensor type for a plot of data.
Note: Reservoir Flows are daily averages.

Earlier

Date RES ELE    STORAGE    RES CHG    TOC STO    ABV TOC    OUTFLOW    INFLOW    PPT INC    TEMP MN    TEMP MX    EVP PAN   
 FEET   AF   AF   AF   AF   CFS   CFS   INCHES   DEG F   DEG F   INCHES  
03/26/2015 735.36 64873 -98 68410 -3537 129 89 0.04 8 31 0.20
03/27/2015 735.26 64709 -164 68410 -3701 132 59 0.00 9 26 0.19
03/28/2015 -- -- -- -- -- -- -- -- -- -- --
03/29/2015 735.11 64464 -- 68410 -- 133 76 0.00 6 28 0.20
03/30/2015 735.01 64301 -- 68410 -- 139 65 0.00 8 27 0.19
03/31/2015 734.91 64137 -164 r 68410 -- 148 73 0.00 7 20 0.17
04/01/2015 734.73 63844 -- 69358 -5514 177 36 0.00 3 18 0.16
04/02/2015 734.58 63599 -245 70305 -6706 182 67 0.00 6 22 0.19
04/03/2015 734.41 63323 -276 71253 -7930 177 46 0.00 3 21 0.18
04/04/2015 734.26 63079 -244 72200 -9121 179 63 0.00 4 18 0.15
04/05/2015 734.15 62900 -179 73148 -10248 173 88 0.13 3 14 0.11
04/06/2015 734.02 62690 -210 74096 -11406 172 72 0.09 2 15 0.11
04/07/2015 734.06 62754 64 75043 -12289 142 179 1.11 5 13 0.10
04/08/2015 733.99 62641 -113 75991 -13350 140 90 0.00 4 19 0.16
04/09/2015 733.88 62463 -178 76938 -14475 160 79 0.00 3 23 0.19
04/10/2015 733.78 62301 -162 77886 -15585 164 91 0.00 2 22 0.19
04/11/2015 733.65 62091 -210 78834 -16743 169 71 0.00 6 21 0.18
04/12/2015 733.53 61897 -194 79781 -- 169 81 0.05 4 28 0.22
04/13/2015 733.40 61687 -- 80729 -- 169 68 0.00 12 13 0.09
04/14/2015 733.25 61445 -- 81676 -- 172 60 0.00 12 12 0.21
04/15/2015 733.10 61204 -241 82624 -21420 172 66 0.00 10 25 0.34
04/16/2015 732.99 61027 -177 83572 -22545 174 95 0.00 4 29 0.23
04/17/2015 732.87 60834 -193 84519 -23685 176 90 0.01 5 31 0.24
04/18/2015 732.76 60658 -176 85467 -24809 176 98 0.00 6 31 0.24
04/19/2015 732.64 60466 -192 86370 -25904 176 91 0.01 7 32 0.25
04/20/2015 732.52 60273 -193 86370 -26097 176 89 0.00 9 29 0.22
04/21/2015 732.41 60097 -176 86370 -26273 176 96 0.00 11 25 0.20
04/22/2015 732.30 59922 -175 86370 -26448 176 98 0.00 7 26 0.22
04/23/2015 732.19 59746 -176 86370 -26624 176 97 0.00 6 25 0.21
04/24/2015 732.11 59619 -127 86370 -26751 175 119 0.47 9 19 0.17
04/25/2015 -- -- -- -- -- -- -- -- -- -- --

Later | Latest

Warning! This data is preliminary and subject to revision.

Show COY Map | Plot COY Data | 1 Month COY Data | Real-Time COY Data | COY Info